Time;durP1;ratioP1;P1;durP2;ratioP2;P2;SDS_P1;SDS_P2;PMS_P1;PMS_P2;Temp;Humidity;BMP_temperature;BMP_pressure;BME280_temperature;BME280_humidity;BME280_pressure;Samples;Min_cycle;Max_cycle;Signal;HPM_P1;HPM_P2
2021/03/10 00:00:21;;;;;;;;;;;;;;;;;;5028752;28;706;-59
2021/03/10 00:02:47;;;;;;;;;;;;;;;;;;5029332;28;918;-59
2021/03/10 00:05:13;;;;;;;;;;;;;;;;;;5029040;28;820;-59
2021/03/10 00:07:39;;;;;;;;;;;;;;;;;;5021412;28;950;-59
2021/03/10 00:10:05;;;;;;;;;;;;;;;;;;4989196;28;1967;-60
2021/03/10 00:12:30;;;;;;;;;;;;;;;;;;4989277;28;828;-59
2021/03/10 00:14:56;;;;;;;;;;;;;;;;;;5005026;28;933;-59
2021/03/10 00:17:21;;;;;;;;;;;;;;;;;;5008706;28;842;-59
2021/03/10 00:19:46;;;;;;;;;;;;;;;;;;5008968;28;956;-59
2021/03/10 00:22:12;;;;;;;;;;;;;;;;;;5009050;28;1595;-59
2021/03/10 00:24:37;;;;;;;;;;;;;;;;;;5010097;28;847;-59
2021/03/10 00:27:03;;;;;;;;;;;;;;;;;;5008411;28;710;-60
2021/03/10 00:29:29;;;;;;;;;;;;;;;;;;5008308;28;1894;-59
2021/03/10 00:31:54;;;;;;;;;;;;;;;;;;5008228;28;848;-59
2021/03/10 00:34:19;;;;;;;;;;;;;;;;;;5008251;28;815;-60
2021/03/10 00:36:45;;;;;;;;;;;;;;;;;;5008044;28;1275;-60
2021/03/10 00:39:10;;;;;;;;;;;;;;;;;;5008834;28;910;-59
2021/03/10 00:41:35;;;;;;;;;;;;;;;;;;5008968;28;828;-60
2021/03/10 00:44:01;;;;;;;;;;;;;;;;;;5008674;28;926;-60
2021/03/10 00:46:26;;;;;;;;;;;;;;;;;;5008488;28;958;-60
2021/03/10 00:48:51;;;;;;;;;;;;;;;;;;5008618;28;1918;-59
2021/03/10 00:51:17;;;;;;;;;;;;;;;;;;5008300;28;886;-59
2021/03/10 00:53:42;;;;;;;;;;;;;;;;;;5017688;28;1075;-59
2021/03/10 00:56:08;;;;;;;;;;;;;;;;;;5028606;28;905;-59
2021/03/10 00:58:33;;;;;;;;;;;;;;;;;;5028028;28;862;-59
2021/03/10 01:00:59;;;;;;;;;;;;;;;;;;5024803;28;969;-58
2021/03/10 01:03:24;;;;;;;;;;;;;;;;;;5006648;28;887;-59
2021/03/10 01:05:49;;;;;;;;;;;;;;;;;;5007896;28;894;-58
2021/03/10 01:08:15;;;;;;;;;;;;;;;;;;5007948;28;1906;-58
2021/03/10 01:10:40;;;;;;;;;;;;;;;;;;5008595;28;824;-58
2021/03/10 01:13:06;;;;;;;;;;;;;;;;;;5007857;28;804;-59
2021/03/10 01:15:31;;;;;;;;;;;;;;;;;;5039350;28;886;-59
2021/03/10 01:17:56;;;;;;;;;;;;;;;;;;5007517;28;898;-59
2021/03/10 01:20:23;;;;;;;;;;;;;;;;;;5008921;28;1098;-59
2021/03/10 01:22:49;;;;;;;;;;;;;;;;;;5008704;28;1145;-59
2021/03/10 01:25:14;;;;;;;;;;;;;;;;;;5007442;28;804;-59
2021/03/10 01:27:40;;;;;;;;;;;;;;;;;;5008045;28;890;-58
2021/03/10 01:30:08;;;;;;;;;;;;;;;;;;5006691;28;1894;-58
2021/03/10 01:32:34;;;;;;;;;;;;;;;;;;5006999;28;923;-58
2021/03/10 01:34:59;;;;;;;;;;;;;;;;;;5007118;28;933;-59
2021/03/10 01:37:24;;;;;;;;;;;;;;;;;;5007423;28;823;-58
2021/03/10 01:39:50;;;;;;;;;;;;;;;;;;5007183;28;930;-59
2021/03/10 01:42:15;;;;;;;;;;;;;;;;;;5006921;28;827;-59
2021/03/10 01:44:40;;;;;;;;;;;;;;;;;;4997444;28;1069;-58
2021/03/10 01:47:07;;;;;;;;;;;;;;;;;;4987398;28;888;-59
2021/03/10 01:49:33;;;;;;;;;;;;;;;;;;4987355;28;1973;-58
2021/03/10 01:51:59;;;;;;;;;;;;;;;;;;4987942;28;939;-59
2021/03/10 01:54:24;;;;;;;;;;;;;;;;;;5017425;28;1096;-59
2021/03/10 01:56:50;;;;;;;;;;;;;;;;;;5026524;28;843;-58
2021/03/10 01:59:15;;;;;;;;;;;;;;;;;;5026773;28;871;-59
2021/03/10 02:01:41;;;;;;;;;;;;;;;;;;5013792;28;812;-58
2021/03/10 02:04:07;;;;;;;;;;;;;;;;;;5006746;28;815;-58
2021/03/10 02:06:32;;;;;;;;;;;;;;;;;;5006734;28;875;-59
2021/03/10 02:09:01;;;;;;;;;;;;;;;;;;5006616;28;1963;-58
2021/03/10 02:11:32;;;;;;;;;;;;;;;;;;5006954;28;911;-58
2021/03/10 02:14:13;;;;;;;;;;;;;;;;;;5006201;28;1108;-58
2021/03/10 02:16:38;;;;;;;;;;;;;;;;;;5007301;28;879;-58
2021/03/10 02:19:04;;;;;;;;;;;;;;;;;;5006498;28;906;-59
2021/03/10 02:21:32;;;;;;;;;;;;;;;;;;5006826;28;875;-59
2021/03/10 02:24:09;;;;;;;;;;;;;;;;;;5006551;28;895;-59
2021/03/10 02:26:44;;;;;;;;;;;;;;;;;;5006730;28;756;-59
2021/03/10 02:29:11;;;;;;;;;;;;;;;;;;5007150;28;1982;-59
2021/03/10 02:31:39;;;;;;;;;;;;;;;;;;5006140;28;827;-59
2021/03/10 02:34:06;;;;;;;;;;;;;;;;;;5006371;28;887;-59
2021/03/10 02:36:32;;;;;;;;;;;;;;;;;;5006333;28;866;-59
2021/03/10 02:38:59;;;;;;;;;;;;;;;;;;5005853;28;930;-58
2021/03/10 02:41:27;;;;;;;;;;;;;;;;;;5006638;28;886;-59
2021/03/10 02:43:54;;;;;;;;;;;;;;;;;;5006296;28;1199;-59
2021/03/10 02:46:20;;;;;;;;;;;;;;;;;;5006241;28;890;-59
2021/03/10 02:48:45;;;;;;;;;;;;;;;;;;5006133;28;1906;-60
2021/03/10 02:51:12;;;;;;;;;;;;;;;;;;5006831;28;890;-60
2021/03/10 02:53:40;;;;;;;;;;;;;;;;;;5015295;28;1162;-60
2021/03/10 02:56:06;;;;;;;;;;;;;;;;;;5026088;28;836;-59
2021/03/10 02:58:31;;;;;;;;;;;;;;;;;;5026006;28;934;-59
2021/03/10 03:00:57;;;;;;;;;;;;;;;;;;5025745;28;978;-59
2021/03/10 03:03:22;;;;;;;;;;;;;;;;;;5025596;28;851;-58
2021/03/10 03:05:48;;;;;;;;;;;;;;;;;;5025730;28;902;-59
2021/03/10 03:08:14;;;;;;;;;;;;;;;;;;5025534;28;1889;-59
2021/03/10 03:10:40;;;;;;;;;;;;;;;;;;5026346;28;869;-59
2021/03/10 03:13:07;;;;;;;;;;;;;;;;;;5025851;28;879;-59
2021/03/10 03:15:33;;;;;;;;;;;;;;;;;;5026283;28;836;-59
2021/03/10 03:18:00;;;;;;;;;;;;;;;;;;5025863;28;949;-59
2021/03/10 03:20:25;;;;;;;;;;;;;;;;;;5014323;28;922;-59
2021/03/10 03:22:54;;;;;;;;;;;;;;;;;;5008327;28;1694;-59
2021/03/10 03:25:21;;;;;;;;;;;;;;;;;;5006014;28;848;-58
2021/03/10 03:27:49;;;;;;;;;;;;;;;;;;5009677;28;875;-59
2021/03/10 03:30:15;;;;;;;;;;;;;;;;;;5009375;28;1911;-59
2021/03/10 03:32:42;;;;;;;;;;;;;;;;;;5010925;28;899;-59
2021/03/10 03:35:08;;;;;;;;;;;;;;;;;;5010285;28;1344;-59
2021/03/10 03:37:34;;;;;;;;;;;;;;;;;;5009574;28;1371;-59
2021/03/10 03:39:59;;;;;;;;;;;;;;;;;;5009942;28;890;-59
2021/03/10 03:42:24;;;;;;;;;;;;;;;;;;5009435;28;974;-59
2021/03/10 03:44:50;;;;;;;;;;;;;;;;;;5009609;28;855;-58
2021/03/10 03:47:15;;;;;;;;;;;;;;;;;;5009425;28;859;-59
2021/03/10 03:49:42;;;;;;;;;;;;;;;;;;5009668;28;1911;-59
2021/03/10 03:52:08;;;;;;;;;;;;;;;;;;5009992;28;843;-58
2021/03/10 03:54:33;;;;;;;;;;;;;;;;;;5025155;28;1153;-59
2021/03/10 03:56:58;;;;;;;;;;;;;;;;;;5028954;28;895;-59
2021/03/10 03:59:24;;;;;;;;;;;;;;;;;;5028687;28;843;-59
2021/03/10 04:01:49;;;;;;;;;;;;;;;;;;5028431;28;847;-59
2021/03/10 04:04:14;;;;;;;;;;;;;;;;;;5028244;28;914;-58
2021/03/10 04:06:49;;;;;;;;;;;;;;;;;;5029108;28;886;-58
2021/03/10 04:09:14;;;;;;;;;;;;;;;;;;5027858;28;1956;-59
2021/03/10 04:11:41;;;;;;;;;;;;;;;;;;5030004;28;823;-58
2021/03/10 04:14:06;;;;;;;;;;;;;;;;;;5029002;28;971;-59
2021/03/10 04:16:32;;;;;;;;;;;;;;;;;;5028574;28;863;-58
2021/03/10 04:18:57;;;;;;;;;;;;;;;;;;5018604;28;867;-58
2021/03/10 04:21:23;;;;;;;;;;;;;;;;;;5008711;28;899;-59
2021/03/10 04:23:48;;;;;;;;;;;;;;;;;;5008161;28;878;-58
2021/03/10 04:26:13;;;;;;;;;;;;;;;;;;5007703;28;883;-59
2021/03/10 04:28:39;;;;;;;;;;;;;;;;;;5007411;28;2013;-58
2021/03/10 04:31:04;;;;;;;;;;;;;;;;;;4996294;28;2200;-58
2021/03/10 04:33:30;;;;;;;;;;;;;;;;;;5006450;28;898;-58
2021/03/10 04:35:55;;;;;;;;;;;;;;;;;;5008693;28;827;-59
2021/03/10 04:38:20;;;;;;;;;;;;;;;;;;5008188;28;891;-58
2021/03/10 04:40:46;;;;;;;;;;;;;;;;;;5008761;28;803;-58
2021/03/10 04:43:11;;;;;;;;;;;;;;;;;;5009379;28;902;-59
2021/03/10 04:45:37;;;;;;;;;;;;;;;;;;5007370;28;1679;-59
2021/03/10 04:48:02;;;;;;;;;;;;;;;;;;5007189;28;1074;-59
2021/03/10 04:50:27;;;;;;;;;;;;;;;;;;4991525;28;1971;-59
2021/03/10 04:52:53;;;;;;;;;;;;;;;;;;4992612;28;1083;-59
2021/03/10 04:55:18;;;;;;;;;;;;;;;;;;5027489;28;948;-58
2021/03/10 04:57:43;;;;;;;;;;;;;;;;;;5014883;28;1745;-59
2021/03/10 05:00:09;;;;;;;;;;;;;;;;;;4989850;28;859;-58
2021/03/10 05:02:36;;;;;;;;;;;;;;;;;;4988952;28;2167;-58
2021/03/10 05:05:02;;;;;;;;;;;;;;;;;;4997719;28;807;-59
2021/03/10 05:07:27;;;;;;;;;;;;;;;;;;4988998;28;891;-58
2021/03/10 05:09:53;;;;;;;;;;;;;;;;;;4988092;28;1977;-58
2021/03/10 05:12:18;;;;;;;;;;;;;;;;;;4987815;28;851;-58
2021/03/10 05:14:44;;;;;;;;;;;;;;;;;;5002666;28;1071;-59
2021/03/10 05:17:09;;;;;;;;;;;;;;;;;;4997154;28;1566;-58
2021/03/10 05:19:34;;;;;;;;;;;;;;;;;;4988303;28;820;-58
2021/03/10 05:22:00;;;;;;;;;;;;;;;;;;4987919;28;840;-58
2021/03/10 05:24:25;;;;;;;;;;;;;;;;;;4999925;28;915;-58
2021/03/10 05:26:50;;;;;;;;;;;;;;;;;;5007301;28;1116;-58
2021/03/10 05:29:16;;;;;;;;;;;;;;;;;;4993445;28;1899;-59
2021/03/10 05:31:41;;;;;;;;;;;;;;;;;;4988443;28;863;-58
2021/03/10 05:34:06;;;;;;;;;;;;;;;;;;4987246;28;836;-59
2021/03/10 05:36:32;;;;;;;;;;;;;;;;;;4992192;28;860;-59
2021/03/10 05:38:57;;;;;;;;;;;;;;;;;;5006872;28;835;-59
2021/03/10 05:41:23;;;;;;;;;;;;;;;;;;5007636;28;927;-59
2021/03/10 05:43:48;;;;;;;;;;;;;;;;;;5006635;28;1273;-59
2021/03/10 05:46:14;;;;;;;;;;;;;;;;;;5003033;28;1508;-59
2021/03/10 05:48:39;;;;;;;;;;;;;;;;;;5000174;28;1989;-59
2021/03/10 05:51:05;;;;;;;;;;;;;;;;;;4986459;28;887;-59
2021/03/10 05:53:33;;;;;;;;;;;;;;;;;;5006508;28;1094;-59
2021/03/10 05:56:02;;;;;;;;;;;;;;;;;;5026592;28;807;-58
2021/03/10 05:58:27;;;;;;;;;;;;;;;;;;5021983;28;819;-59
2021/03/10 06:00:52;;;;;;;;;;;;;;;;;;5007095;28;839;-59
2021/03/10 06:03:18;;;;;;;;;;;;;;;;;;5007043;28;1152;-59
2021/03/10 06:05:44;;;;;;;;;;;;;;;;;;5006945;28;887;-61
2021/03/10 06:08:18;;;;;;;;;;;;;;;;;;5007138;28;863;-59
2021/03/10 06:10:45;;;;;;;;;;;;;;;;;;5006396;28;851;-59
2021/03/10 06:13:17;;;;;;;;;;;;;;;;;;4997362;28;1527;-59
2021/03/10 06:15:43;;;;;;;;;;;;;;;;;;4995659;28;899;-59
2021/03/10 06:18:08;;;;;;;;;;;;;;;;;;4994706;28;1536;-59
2021/03/10 06:20:34;;;;;;;;;;;;;;;;;;5002758;28;1694;-59
2021/03/10 06:23:00;;;;;;;;;;;;;;;;;;4999645;28;899;-59
2021/03/10 06:25:34;;;;;;;;;;;;;;;;;;4996299;28;806;-59
2021/03/10 06:28:00;;;;;;;;;;;;;;;;;;4986220;28;1117;-59
2021/03/10 06:30:36;;;;;;;;;;;;;;;;;;4986594;28;1890;-59
2021/03/10 06:33:03;;;;;;;;;;;;;;;;;;4986280;28;816;-59
2021/03/10 06:35:29;;;;;;;;;;;;;;;;;;4986608;28;879;-59
2021/03/10 06:38:07;;;;;;;;;;;;;;;;;;5004261;28;910;-59
2021/03/10 06:40:33;;;;;;;;;;;;;;;;;;5006296;28;788;-59
2021/03/10 06:42:59;;;;;;;;;;;;;;;;;;5005604;28;839;-59
2021/03/10 06:45:28;;;;;;;;;;;;;;;;;;5005777;28;812;-59
2021/03/10 06:47:54;;;;;;;;;;;;;;;;;;4988984;28;1069;-59
2021/03/10 06:50:19;;;;;;;;;;;;;;;;;;4986146;28;1906;-59
2021/03/10 06:52:51;;;;;;;;;;;;;;;;;;4993469;28;1546;-59
2021/03/10 06:55:17;;;;;;;;;;;;;;;;;;4997391;28;883;-59
2021/03/10 06:57:44;;;;;;;;;;;;;;;;;;4987407;28;865;-59
2021/03/10 07:00:18;;;;;;;;;;;;;;;;;;4988531;28;848;-58
2021/03/10 07:02:44;;;;;;;;;;;;;;;;;;5005422;28;1559;-59
2021/03/10 07:05:10;;;;;;;;;;;;;;;;;;5010126;28;1238;-59
2021/03/10 07:07:35;;;;;;;;;;;;;;;;;;5007003;28;1527;-59
2021/03/10 07:10:01;;;;;;;;;;;;;;;;;;5010233;28;1890;-59
2021/03/10 07:12:27;;;;;;;;;;;;;;;;;;5011246;28;1063;-58
2021/03/10 07:14:52;;;;;;;;;;;;;;;;;;5008292;28;1514;-58
2021/03/10 07:17:19;;;;;;;;;;;;;;;;;;5009832;28;1471;-59
2021/03/10 07:19:45;;;;;;;;;;;;;;;;;;5010849;28;1285;-59
2021/03/10 07:22:11;;;;;;;;;;;;;;;;;;5010527;28;1045;-58
2021/03/10 07:24:36;;;;;;;;;;;;;;;;;;5011774;28;1228;-59
2021/03/10 07:27:03;;;;;;;;;;;;;;;;;;5009711;28;891;-58
2021/03/10 07:29:33;;;;;;;;;;;;;;;;;;5009648;28;1901;-59
2021/03/10 07:32:00;;;;;;;;;;;;;;;;;;5009373;28;864;-59
2021/03/10 07:34:26;;;;;;;;;;;;;;;;;;5009786;28;1203;-59
2021/03/10 07:36:51;;;;;;;;;;;;;;;;;;4997043;28;1785;-59
2021/03/10 07:39:27;;;;;;;;;;;;;;;;;;4999443;28;911;-59
2021/03/10 07:41:53;;;;;;;;;;;;;;;;;;4990147;28;883;-58
2021/03/10 07:44:22;;;;;;;;;;;;;;;;;;5000538;28;1074;-59
2021/03/10 07:46:50;;;;;;;;;;;;;;;;;;5005375;28;1789;-59
2021/03/10 07:49:18;;;;;;;;;;;;;;;;;;4993403;28;1906;-59
2021/03/10 07:51:44;;;;;;;;;;;;;;;;;;4999959;28;1707;-59
2021/03/10 07:54:15;;;;;;;;;;;;;;;;;;5022978;28;1095;-58
2021/03/10 07:56:41;;;;;;;;;;;;;;;;;;5012379;28;1678;-59
2021/03/10 07:59:14;;;;;;;;;;;;;;;;;;5009219;28;1045;-59
2021/03/10 08:01:40;;;;;;;;;;;;;;;;;;5007356;28;1025;-58
2021/03/10 08:04:09;;;;;;;;;;;;;;;;;;5008279;28;1337;-59
2021/03/10 08:07:00;;;;;;;;;;;;;;;;;;5009250;28;858;-58
2021/03/10 08:09:27;;;;;;;;;;;;;;;;;;5009014;28;1991;-58
2021/03/10 08:12:06;;;;;;;;;;;;;;;;;;5005125;28;1586;-59
2021/03/10 08:14:39;;;;;;;;;;;;;;;;;;5000773;28;1811;-58
2021/03/10 08:17:05;;;;;;;;;;;;;;;;;;5004803;28;1134;-58
2021/03/10 08:19:30;;;;;;;;;;;;;;;;;;5008356;28;922;-58
2021/03/10 08:21:56;;;;;;;;;;;;;;;;;;5008586;28;1628;-58
2021/03/10 08:24:22;;;;;;;;;;;;;;;;;;5002250;28;1488;-58
2021/03/10 08:26:49;;;;;;;;;;;;;;;;;;4989432;28;902;-58
2021/03/10 08:29:14;;;;;;;;;;;;;;;;;;4995916;28;1922;-60
2021/03/10 08:31:47;;;;;;;;;;;;;;;;;;5006558;28;1586;-59
2021/03/10 08:34:14;;;;;;;;;;;;;;;;;;4988110;28;847;-61
2021/03/10 08:36:39;;;;;;;;;;;;;;;;;;4988192;28;839;-59
2021/03/10 08:39:06;;;;;;;;;;;;;;;;;;4988591;28;863;-59
2021/03/10 08:41:41;;;;;;;;;;;;;;;;;;4988839;28;820;-59
2021/03/10 08:44:07;;;;;;;;;;;;;;;;;;4987573;28;1066;-59
2021/03/10 08:46:41;;;;;;;;;;;;;;;;;;4988792;28;918;-59
2021/03/10 08:49:36;;;;;;;;;;;;;;;;;;5027710;28;1909;-59
2021/03/10 08:52:08;;;;;;;;;;;;;;;;;;5026770;28;1357;-60
2021/03/10 08:54:46;;;;;;;;;;;;;;;;;;5010673;28;1575;-59
2021/03/10 08:57:11;;;;;;;;;;;;;;;;;;4989238;28;1010;-60
2021/03/10 08:59:37;;;;;;;;;;;;;;;;;;4988568;28;843;-59
2021/03/10 09:02:02;;;;;;;;;;;;;;;;;;4987834;28;808;-60
2021/03/10 09:04:28;;;;;;;;;;;;;;;;;;4987946;28;896;-60
2021/03/10 09:06:57;;;;;;;;;;;;;;;;;;4987893;28;876;-60
2021/03/10 09:09:23;;;;;;;;;;;;;;;;;;4987669;28;1898;-60
2021/03/10 09:11:50;;;;;;;;;;;;;;;;;;4987858;28;930;-59
2021/03/10 09:14:15;;;;;;;;;;;;;;;;;;5004033;28;812;-59
2021/03/10 09:17:10;;;;;;;;;;;;;;;;;;5007950;28;843;-59
2021/03/10 09:19:38;;;;;;;;;;;;;;;;;;5006250;28;1240;-60
2021/03/10 09:22:09;;;;;;;;;;;;;;;;;;5007534;28;878;-60
2021/03/10 09:24:55;;;;;;;;;;;;;;;;;;5006599;28;816;-60
2021/03/10 09:27:22;;;;;;;;;;;;;;;;;;5007531;28;1137;-59
2021/03/10 09:29:48;;;;;;;;;;;;;;;;;;5007697;28;1886;-60
2021/03/10 09:32:13;;;;;;;;;;;;;;;;;;5009897;28;1233;-60
2021/03/10 09:34:39;;;;;;;;;;;;;;;;;;5008488;28;875;-60
2021/03/10 09:37:08;;;;;;;;;;;;;;;;;;4996699;28;1097;-60
2021/03/10 09:39:47;;;;;;;;;;;;;;;;;;4988146;28;817;-60
2021/03/10 09:42:13;;;;;;;;;;;;;;;;;;4986890;28;990;-61
2021/03/10 09:44:49;;;;;;;;;;;;;;;;;;5103058;27;1901;-60
2021/03/10 09:47:16;;;;;;;;;;;;;;;;;;5103862;28;881;-60
2021/03/10 09:49:55;;;;;;;;;;;;;;;;;;5104833;28;827;-59
2021/03/10 09:52:33;;;;;;;;;;;;;;;;;;5103221;28;869;-60
2021/03/10 09:54:58;;;;;;;;;;;;;;;;;;5119481;28;1486;-60
2021/03/10 09:57:27;;;;;;;;;;;;;;;;;;5104010;28;850;-60
2021/03/10 09:59:52;;;;;;;;;;;;;;;;;;5104034;28;843;-59
2021/03/10 10:02:18;;;;;;;;;;;;;;;;;;5101717;28;1918;-60
2021/03/10 10:04:44;;;;;;;;;;;;;;;;;;5103678;28;850;-60
2021/03/10 10:07:12;;;;;;;;;;;;;;;;;;5087904;28;885;-60
2021/03/10 10:09:38;;;;;;;;;;;;;;;;;;5084077;28;827;-59
2021/03/10 10:12:03;;;;;;;;;;;;;;;;;;5083250;28;834;-60
2021/03/10 10:14:29;;;;;;;;;;;;;;;;;;5083425;28;863;-60
2021/03/10 10:16:54;;;;;;;;;;;;;;;;;;5082528;28;942;-60
2021/03/10 10:19:20;;;;;;;;;;;;;;;;;;5083067;28;835;-60
2021/03/10 10:21:47;;;;;;;;;;;;;;;;;;5082059;28;815;-60
2021/03/10 10:24:14;;;;;;;;;;;;;;;;;;5082102;28;1964;-61
2021/03/10 10:26:39;;;;;;;;;;;;;;;;;;5083814;28;842;-60
2021/03/10 10:29:05;;;;;;;;;;;;;;;;;;5082820;28;838;-60
2021/03/10 10:31:30;;;;;;;;;;;;;;;;;;5082572;28;902;-61
2021/03/10 10:33:56;;;;;;;;;;;;;;;;;;5082554;28;839;-61
2021/03/10 10:36:21;;;;;;;;;;;;;;;;;;5082852;28;972;-60
2021/03/10 10:38:46;;;;;;;;;;;;;;;;;;5082621;28;831;-60
2021/03/10 10:41:12;;;;;;;;;;;;;;;;;;5082622;28;926;-60
2021/03/10 10:43:37;;;;;;;;;;;;;;;;;;5087216;28;1895;-59
2021/03/10 10:46:02;;;;;;;;;;;;;;;;;;5081478;28;823;-59
2021/03/10 10:48:28;;;;;;;;;;;;;;;;;;5081592;28;846;-59
2021/03/10 10:50:53;;;;;;;;;;;;;;;;;;5080450;28;1195;-59
2021/03/10 10:53:19;;;;;;;;;;;;;;;;;;5100496;28;1627;-59
2021/03/10 10:55:44;;;;;;;;;;;;;;;;;;5089561;28;1146;-60
2021/03/10 10:58:09;;;;;;;;;;;;;;;;;;5088341;28;1214;-59
2021/03/10 11:00:35;;;;;;;;;;;;;;;;;;5087874;28;1016;-59
2021/03/10 11:03:00;;;;;;;;;;;;;;;;;;5087868;28;1901;-59
2021/03/10 11:05:26;;;;;;;;;;;;;;;;;;5087600;28;928;-59
2021/03/10 11:07:51;;;;;;;;;;;;;;;;;;5085997;28;1594;-58
2021/03/10 11:10:16;;;;;;;;;;;;;;;;;;5068791;28;1068;-59
2021/03/10 11:12:42;;;;;;;;;;;;;;;;;;5080039;28;1687;-59
2021/03/10 11:15:08;;;;;;;;;;;;;;;;;;5083425;28;1086;-59
2021/03/10 11:17:33;;;;;;;;;;;;;;;;;;5072997;28;807;-59
2021/03/10 11:19:59;;;;;;;;;;;;;;;;;;5085737;28;1258;-59
2021/03/10 11:22:24;;;;;;;;;;;;;;;;;;5088440;28;2463;-59
2021/03/10 11:24:49;;;;;;;;;;;;;;;;;;5088321;28;1277;-59
2021/03/10 11:27:17;;;;;;;;;;;;;;;;;;5087918;28;1146;-59
2021/03/10 11:29:43;;;;;;;;;;;;;;;;;;5088844;28;1008;-60
2021/03/10 11:32:09;;;;;;;;;;;;;;;;;;5087296;28;1627;-59
2021/03/10 11:34:34;;;;;;;;;;;;;;;;;;5092110;28;1321;-59
2021/03/10 11:37:02;;;;;;;;;;;;;;;;;;5088523;28;1146;-59
2021/03/10 11:39:27;;;;;;;;;;;;;;;;;;5088323;28;1217;-59
2021/03/10 11:41:52;;;;;;;;;;;;;;;;;;5085826;28;1405;-59
2021/03/10 11:44:18;;;;;;;;;;;;;;;;;;5086722;28;1962;-59
2021/03/10 11:46:43;;;;;;;;;;;;;;;;;;5079334;28;1070;-61
2021/03/10 11:49:08;;;;;;;;;;;;;;;;;;5068443;28;863;-59
2021/03/10 11:51:34;;;;;;;;;;;;;;;;;;5066708;28;835;-59
2021/03/10 11:54:00;;;;;;;;;;;;;;;;;;5090899;28;1160;-59
2021/03/10 11:56:25;;;;;;;;;;;;;;;;;;5108085;28;960;-59
2021/03/10 11:58:51;;;;;;;;;;;;;;;;;;5108091;28;847;-59
2021/03/10 12:01:16;;;;;;;;;;;;;;;;;;5108435;28;897;-58
2021/03/10 12:03:42;;;;;;;;;;;;;;;;;;5108718;28;1925;-60
2021/03/10 12:06:07;;;;;;;;;;;;;;;;;;5095214;28;1240;-60
2021/03/10 12:08:33;;;;;;;;;;;;;;;;;;5082016;28;1507;-58
2021/03/10 12:10:58;;;;;;;;;;;;;;;;;;5084184;28;1583;-58
2021/03/10 12:13:25;;;;;;;;;;;;;;;;;;5083412;28;1507;-58
2021/03/10 12:15:51;;;;;;;;;;;;;;;;;;5085096;28;1567;-58
2021/03/10 12:18:16;;;;;;;;;;;;;;;;;;5084686;28;1193;-60
2021/03/10 12:20:42;;;;;;;;;;;;;;;;;;5087095;28;1315;-58
2021/03/10 12:23:08;;;;;;;;;;;;;;;;;;5086309;28;1996;-59
2021/03/10 12:25:33;;;;;;;;;;;;;;;;;;5086395;28;1279;-58
2021/03/10 12:27:59;;;;;;;;;;;;;;;;;;5089098;28;1240;-59
2021/03/10 12:30:24;;;;;;;;;;;;;;;;;;5083771;28;1460;-59
2021/03/10 12:32:50;;;;;;;;;;;;;;;;;;5086361;28;1519;-58
2021/03/10 12:35:16;;;;;;;;;;;;;;;;;;5086602;28;1280;-59
2021/03/10 12:37:41;;;;;;;;;;;;;;;;;;5083236;28;1527;-59
2021/03/10 12:40:07;;;;;;;;;;;;;;;;;;5087411;28;1294;-58
2021/03/10 12:42:33;;;;;;;;;;;;;;;;;;5085441;28;1893;-60
2021/03/10 12:44:59;;;;;;;;;;;;;;;;;;5087100;28;1264;-59
2021/03/10 12:47:25;;;;;;;;;;;;;;;;;;5086819;28;1228;-59
2021/03/10 12:49:54;;;;;;;;;;;;;;;;;;5087234;28;1393;-58
2021/03/10 12:52:20;;;;;;;;;;;;;;;;;;5084130;28;1142;-59
2021/03/10 12:54:45;;;;;;;;;;;;;;;;;;5095472;28;1153;-59
2021/03/10 12:57:11;;;;;;;;;;;;;;;;;;5087431;28;1076;-57
2021/03/10 12:59:36;;;;;;;;;;;;;;;;;;5086348;28;1154;-58
2021/03/10 13:02:01;;;;;;;;;;;;;;;;;;5082992;28;1511;-58
2021/03/10 13:04:28;;;;;;;;;;;;;;;;;;5087110;28;2015;-58
2021/03/10 13:06:53;;;;;;;;;;;;;;;;;;5086351;28;851;-58
2021/03/10 13:09:18;;;;;;;;;;;;;;;;;;5096173;28;1067;-58
2021/03/10 13:11:44;;;;;;;;;;;;;;;;;;5082632;28;1836;-59
2021/03/10 13:14:09;;;;;;;;;;;;;;;;;;5086325;28;1784;-58
2021/03/10 13:16:36;;;;;;;;;;;;;;;;;;5075115;28;1344;-59
2021/03/10 13:19:02;;;;;;;;;;;;;;;;;;5085271;28;1571;-59
2021/03/10 13:21:28;;;;;;;;;;;;;;;;;;5086569;28;914;-58
2021/03/10 13:23:54;;;;;;;;;;;;;;;;;;5080202;28;1886;-58
2021/03/10 13:26:19;;;;;;;;;;;;;;;;;;5083668;28;1355;-58
2021/03/10 13:28:44;;;;;;;;;;;;;;;;;;5084792;28;1645;-58
2021/03/10 13:31:10;;;;;;;;;;;;;;;;;;5086784;28;858;-58
2021/03/10 13:33:35;;;;;;;;;;;;;;;;;;5084947;28;1456;-58
2021/03/10 13:36:01;;;;;;;;;;;;;;;;;;5088368;28;1033;-58
2021/03/10 13:38:27;;;;;;;;;;;;;;;;;;5086021;28;875;-59
2021/03/10 13:40:55;;;;;;;;;;;;;;;;;;5079876;28;1649;-58
2021/03/10 13:43:21;;;;;;;;;;;;;;;;;;5065674;28;2330;-59
2021/03/10 13:45:47;;;;;;;;;;;;;;;;;;5079967;28;1619;-58
2021/03/10 13:48:12;;;;;;;;;;;;;;;;;;5084738;28;1373;-58
2021/03/10 13:50:38;;;;;;;;;;;;;;;;;;5083568;28;1127;-58
2021/03/10 13:53:04;;;;;;;;;;;;;;;;;;5083054;28;1536;-58
2021/03/10 13:55:31;;;;;;;;;;;;;;;;;;5073290;28;917;-58
2021/03/10 13:57:56;;;;;;;;;;;;;;;;;;5086013;28;841;-58
2021/03/10 14:00:22;;;;;;;;;;;;;;;;;;5085926;28;843;-58
2021/03/10 14:02:47;;;;;;;;;;;;;;;;;;5085808;28;1979;-59
2021/03/10 14:05:12;;;;;;;;;;;;;;;;;;5075683;28;1534;-60
2021/03/10 14:07:38;;;;;;;;;;;;;;;;;;5086525;28;721;-59
2021/03/10 14:10:04;;;;;;;;;;;;;;;;;;5080632;28;1702;-59
2021/03/10 14:12:29;;;;;;;;;;;;;;;;;;5065678;28;855;-59
2021/03/10 14:14:55;;;;;;;;;;;;;;;;;;5085448;28;902;-59
2021/03/10 14:17:20;;;;;;;;;;;;;;;;;;5079361;28;1522;-61
2021/03/10 14:19:45;;;;;;;;;;;;;;;;;;5079128;28;1463;-58
2021/03/10 14:22:11;;;;;;;;;;;;;;;;;;5076351;28;1487;-61
2021/03/10 14:24:36;;;;;;;;;;;;;;;;;;5084528;28;1893;-58
2021/03/10 14:27:02;;;;;;;;;;;;;;;;;;4995661;27;10293;-58
2021/03/10 14:29:27;;;;;;;;;;;;;;;;;;5015760;28;56321;-58
2021/03/10 14:31:53;;;;;;;;;;;;;;;;;;5048936;28;830;-59
2021/03/10 14:34:18;;;;;;;;;;;;;;;;;;5043676;28;1485;-59
2021/03/10 14:36:44;;;;;;;;;;;;;;;;;;5044105;28;1490;-59
2021/03/10 14:39:09;;;;;;;;;;;;;;;;;;5044543;28;1206;-58
2021/03/10 14:41:34;;;;;;;;;;;;;;;;;;5047923;28;1616;-59
2021/03/10 14:44:01;;;;;;;;;;;;;;;;;;5040368;28;1902;-58
2021/03/10 14:46:30;;;;;;;;;;;;;;;;;;5046678;28;1247;-58
2021/03/10 14:48:56;;;;;;;;;;;;;;;;;;5047404;28;1661;-58
2021/03/10 14:51:21;;;;;;;;;;;;;;;;;;5048268;28;1195;-58
2021/03/10 14:53:47;;;;;;;;;;;;;;;;;;5048515;28;1217;-59
2021/03/10 14:56:12;;;;;;;;;;;;;;;;;;5049250;28;1016;-58
2021/03/10 14:58:37;;;;;;;;;;;;;;;;;;5047981;28;1159;-58
2021/03/10 15:01:04;;;;;;;;;;;;;;;;;;5047971;28;1045;-58
2021/03/10 15:03:29;;;;;;;;;;;;;;;;;;5042893;28;1913;-59
2021/03/10 15:05:54;;;;;;;;;;;;;;;;;;5045898;28;1508;-58
2021/03/10 15:08:20;;;;;;;;;;;;;;;;;;5046322;28;1464;-58
2021/03/10 15:10:45;;;;;;;;;;;;;;;;;;5048091;28;1048;-59
2021/03/10 15:13:10;;;;;;;;;;;;;;;;;;5047952;28;1171;-58
2021/03/10 15:15:36;;;;;;;;;;;;;;;;;;5048401;28;1159;-58
2021/03/10 15:18:01;;;;;;;;;;;;;;;;;;5047102;28;1392;-58
2021/03/10 15:20:26;;;;;;;;;;;;;;;;;;5048245;28;924;-58
2021/03/10 15:22:52;;;;;;;;;;;;;;;;;;5046502;28;1898;-58
2021/03/10 15:25:17;;;;;;;;;;;;;;;;;;5040232;28;1562;-59
2021/03/10 15:27:43;;;;;;;;;;;;;;;;;;5040293;28;1464;-59
2021/03/10 15:30:10;;;;;;;;;;;;;;;;;;5031841;28;718;-58
2021/03/10 15:32:36;;;;;;;;;;;;;;;;;;5041231;28;2257;-59
2021/03/10 15:35:03;;;;;;;;;;;;;;;;;;5038289;28;902;-58
2021/03/10 15:37:28;;;;;;;;;;;;;;;;;;5046944;28;1087;-58
2021/03/10 15:39:54;;;;;;;;;;;;;;;;;;5042148;28;1221;-58
2021/03/10 15:42:19;;;;;;;;;;;;;;;;;;5044019;28;1131;-59
2021/03/10 15:44:44;;;;;;;;;;;;;;;;;;5050737;28;1913;-59
2021/03/10 15:47:10;;;;;;;;;;;;;;;;;;5048071;28;1162;-59
2021/03/10 15:49:35;;;;;;;;;;;;;;;;;;5034205;28;1104;-58
2021/03/10 15:52:01;;;;;;;;;;;;;;;;;;5041768;28;1111;-58
2021/03/10 15:54:26;;;;;;;;;;;;;;;;;;5047608;28;1185;-66
2021/03/10 15:56:52;;;;;;;;;;;;;;;;;;5047988;28;894;-58
2021/03/10 15:59:18;;;;;;;;;;;;;;;;;;5047811;28;826;-59
2021/03/10 16:01:43;;;;;;;;;;;;;;;;;;5048056;28;838;-59
2021/03/10 16:04:09;;;;;;;;;;;;;;;;;;5047948;28;1977;-59
2021/03/10 16:06:34;;;;;;;;;;;;;;;;;;5046939;28;1268;-58
2021/03/10 16:08:59;;;;;;;;;;;;;;;;;;5045319;28;1213;-58
2021/03/10 16:11:25;;;;;;;;;;;;;;;;;;5046966;28;1139;-58
2021/03/10 16:13:51;;;;;;;;;;;;;;;;;;5046753;28;1260;-58
2021/03/10 16:16:16;;;;;;;;;;;;;;;;;;5047639;28;874;-59
2021/03/10 16:18:42;;;;;;;;;;;;;;;;;;5042617;28;1694;-58
2021/03/10 16:21:07;;;;;;;;;;;;;;;;;;5027368;28;899;-59
2021/03/10 16:23:32;;;;;;;;;;;;;;;;;;5027200;28;1964;-59
2021/03/10 16:25:58;;;;;;;;;;;;;;;;;;5027553;28;858;-58
2021/03/10 16:28:23;;;;;;;;;;;;;;;;;;5027495;28;902;-64
2021/03/10 16:30:49;;;;;;;;;;;;;;;;;;5027661;28;835;-58
2021/03/10 16:33:16;;;;;;;;;;;;;;;;;;5027366;28;1175;-59
2021/03/10 16:35:41;;;;;;;;;;;;;;;;;;5033846;28;2699;-58
2021/03/10 16:38:07;;;;;;;;;;;;;;;;;;5046881;28;863;-59
2021/03/10 16:40:32;;;;;;;;;;;;;;;;;;5046948;28;895;-59
2021/03/10 16:42:57;;;;;;;;;;;;;;;;;;5045893;28;1918;-58
2021/03/10 16:45:23;;;;;;;;;;;;;;;;;;5030853;28;1692;-58
2021/03/10 16:47:48;;;;;;;;;;;;;;;;;;5028742;28;990;-58
2021/03/10 16:50:14;;;;;;;;;;;;;;;;;;5041145;28;1465;-58
2021/03/10 16:52:40;;;;;;;;;;;;;;;;;;5047028;28;1502;-58
2021/03/10 16:55:06;;;;;;;;;;;;;;;;;;5052097;28;1072;-58
2021/03/10 16:57:31;;;;;;;;;;;;;;;;;;5045970;28;1195;-59
2021/03/10 16:59:57;;;;;;;;;;;;;;;;;;5046409;28;815;-58
2021/03/10 17:02:22;;;;;;;;;;;;;;;;;;5042532;28;1059;-57
2021/03/10 17:04:48;;;;;;;;;;;;;;;;;;5026546;28;1939;-58